Time;durP1;ratioP1;P1;durP2;ratioP2;P2;SDS_P1;SDS_P2;PMS_P1;PMS_P2;Temp;Humidity;BMP_temperature;BMP_pressure;BME280_temperature;BME280_humidity;BME280_pressure;Samples;Min_cycle;Max_cycle;Signal;HPM_P1;HPM_P2
2023/07/11 00:02:03;;;;;;;;;;;;;;;23.84;51.37;101670.66;5053022;28;19932;-74
2023/07/11 00:04:28;;;;;;;;;;;;;;;23.84;51.56;101673.38;5051250;28;19967;-74
2023/07/11 00:06:54;;;;;;;;;;;;;;;23.84;51.52;101662.53;5051147;28;19967;-74
2023/07/11 00:09:19;;;;;;;;;;;;;;;23.84;51.62;101667.13;5054445;28;19912;-74
2023/07/11 00:11:45;;;;;;;;;;;;;;;23.84;51.55;101665.25;5052202;28;19916;-74
2023/07/11 00:14:11;;;;;;;;;;;;;;;23.83;51.64;101655.41;5084242;28;19920;-74
2023/07/11 00:16:36;;;;;;;;;;;;;;;23.83;51.58;101655.41;5051927;28;19971;-73
2023/07/11 00:19:03;;;;;;;;;;;;;;;23.83;51.58;101652.69;5051922;28;20389;-74
2023/07/11 00:21:28;;;;;;;;;;;;;;;23.83;51.47;101655.41;5050371;28;19921;-74
2023/07/11 00:24:03;;;;;;;;;;;;;;;23.83;51.52;101649.97;5053580;28;19988;-74
2023/07/11 00:26:29;;;;;;;;;;;;;;;23.83;51.67;101644.56;5047656;28;19933;-74
2023/07/11 00:28:54;;;;;;;;;;;;;;;23.83;51.56;101649.13;5052201;28;19924;-74
2023/07/11 00:31:20;;;;;;;;;;;;;;;23.83;51.63;101654.53;5082817;28;19916;-73
2023/07/11 00:33:45;;;;;;;;;;;;;;;23.83;51.68;101649.97;5048840;28;19920;-73
2023/07/11 00:36:10;;;;;;;;;;;;;;;23.82;51.50;101640.13;5053089;28;20369;-73
2023/07/11 00:38:36;;;;;;;;;;;;;;;23.83;51.52;101638.25;5052314;28;19913;-73
2023/07/11 00:41:01;;;;;;;;;;;;;;;23.82;51.61;101640.13;5053099;28;19928;-73
2023/07/11 00:43:26;;;;;;;;;;;;;;;23.82;51.53;101636.56;5050825;28;19913;-73
2023/07/11 00:46:00;;;;;;;;;;;;;;;23.82;51.64;101634.69;5051867;28;19917;-73
2023/07/11 00:48:25;;;;;;;;;;;;;;;23.82;51.56;101631.13;5045350;28;19972;-74
2023/07/11 00:50:50;;;;;;;;;;;;;;;23.82;51.52;101631.97;5051810;28;20435;-74
2023/07/11 00:53:16;;;;;;;;;;;;;;;23.81;51.59;101638.44;5080155;28;19913;-73
2023/07/11 00:55:42;;;;;;;;;;;;;;;23.81;51.42;101632.16;5049844;28;19920;-73
2023/07/11 00:58:07;;;;;;;;;;;;;;;23.81;51.75;101624.03;5083769;28;19913;-73
2023/07/11 01:00:32;;;;;;;;;;;;;;;23.81;51.56;101621.31;5047373;28;19916;-73
2023/07/11 01:02:57;;;;;;;;;;;;;;;23.80;51.46;101625.06;5053411;28;19966;-73
2023/07/11 01:05:23;;;;;;;;;;;;;;;23.81;51.62;101619.44;5050645;28;19956;-73
2023/07/11 01:07:48;;;;;;;;;;;;;;;23.80;51.38;101614.19;5051722;28;19926;-73
2023/07/11 01:10:13;;;;;;;;;;;;;;;23.81;51.64;101615.88;5050592;28;19999;-73
2023/07/11 01:12:47;;;;;;;;;;;;;;;23.80;51.63;101623.19;5052604;28;20432;-74
2023/07/11 01:15:13;;;;;;;;;;;;;;;23.80;51.60;101617.75;5047720;28;20004;-74
2023/07/11 01:17:38;;;;;;;;;;;;;;;23.80;51.54;101608.78;5051966;28;19924;-73
2023/07/11 01:20:05;;;;;;;;;;;;;;;23.80;51.45;101616.91;5046017;28;19932;-73
2023/07/11 01:22:31;;;;;;;;;;;;;;;23.79;51.39;101613.34;5050231;28;19917;-73
2023/07/11 01:25:03;;;;;;;;;;;;;;;23.79;51.61;101610.66;5080691;28;19947;-73
2023/07/11 01:27:28;;;;;;;;;;;;;;;23.79;51.64;101613.34;5080180;28;19988;-74
2023/07/11 01:29:54;;;;;;;;;;;;;;;23.79;51.64;101602.50;5050070;28;19913;-74
2023/07/11 01:32:19;;;;;;;;;;;;;;;23.79;51.61;101609.78;5050979;28;19913;-72
2023/07/11 01:34:44;;;;;;;;;;;;;;;23.79;51.72;101597.06;5049235;28;19913;-73
2023/07/11 01:37:10;;;;;;;;;;;;;;;23.78;51.55;101595.34;5052152;28;19913;-73
2023/07/11 01:39:35;;;;;;;;;;;;;;;23.79;51.51;101588.91;5052034;28;19920;-73
2023/07/11 01:42:00;;;;;;;;;;;;;;;23.78;51.55;101592.63;5082990;28;19976;-73
2023/07/11 01:44:25;;;;;;;;;;;;;;;23.78;51.52;101584.50;5083329;28;19917;-73
2023/07/11 01:46:51;;;;;;;;;;;;;;;23.78;51.48;101580.94;5050385;28;20298;-73
2023/07/11 01:49:16;;;;;;;;;;;;;;;23.77;51.55;101574.66;5049664;28;19921;-73
2023/07/11 01:51:45;;;;;;;;;;;;;;;23.78;51.51;101579.06;5051171;28;19979;-73
2023/07/11 01:54:10;;;;;;;;;;;;;;;23.77;51.72;101577.38;5075059;28;19948;-73
2023/07/11 01:56:36;;;;;;;;;;;;;;;23.78;51.52;101579.06;5054914;28;19920;-73
2023/07/11 01:59:01;;;;;;;;;;;;;;;23.77;51.47;101573.81;5089255;28;20853;-74
2023/07/11 02:01:26;;;;;;;;;;;;;;;23.77;51.60;101566.53;5052635;28;19921;-73
2023/07/11 02:03:51;;;;;;;;;;;;;;;23.77;51.46;101566.53;5056326;28;19971;-73
2023/07/11 02:06:17;;;;;;;;;;;;;;;23.77;51.50;101562.97;5054490;28;20385;-73
2023/07/11 02:08:42;;;;;;;;;;;;;;;23.76;51.41;101559.41;5056184;28;20487;-73
2023/07/11 02:11:07;;;;;;;;;;;;;;;23.76;51.53;101547.72;5054150;28;20308;-73
2023/07/11 02:13:32;;;;;;;;;;;;;;;23.76;51.35;101548.56;5055256;28;20283;-74
2023/07/11 02:15:57;;;;;;;;;;;;;;;23.76;51.56;101548.56;5083583;28;20420;-74
2023/07/11 02:18:23;;;;;;;;;;;;;;;23.76;51.55;101547.72;5052521;28;19921;-74
2023/07/11 02:20:48;;;;;;;;;;;;;;;23.76;51.66;101547.72;5066711;28;19925;-73
2023/07/11 02:23:14;;;;;;;;;;;;;;;23.76;51.49;101545.00;5050738;28;19913;-74
2023/07/11 02:25:39;;;;;;;;;;;;;;;23.75;51.69;101530.59;5056221;28;19920;-74
2023/07/11 02:28:05;;;;;;;;;;;;;;;23.75;51.69;101532.47;5051649;28;20468;-74
2023/07/11 02:30:30;;;;;;;;;;;;;;;23.75;51.57;101530.59;5055998;28;20367;-74
2023/07/11 02:32:56;;;;;;;;;;;;;;;23.75;51.31;101529.75;5051599;28;19913;-74
2023/07/11 02:35:21;;;;;;;;;;;;;;;23.74;51.60;101509.88;5085842;28;19921;-74
2023/07/11 02:37:46;;;;;;;;;;;;;;;23.74;51.36;101509.88;5053510;28;19920;-73
2023/07/11 02:40:11;;;;;;;;;;;;;;;23.74;51.70;101515.28;5055891;28;19917;-73
2023/07/11 02:42:36;;;;;;;;;;;;;;;23.73;51.51;101500.03;5053855;28;19956;-73
2023/07/11 02:45:02;;;;;;;;;;;;;;;23.74;51.32;101506.31;5054782;28;19914;-74
2023/07/11 02:47:27;;;;;;;;;;;;;;;23.73;51.62;101508.19;5080975;28;19917;-73
2023/07/11 02:49:52;;;;;;;;;;;;;;;23.73;51.54;101505.47;5051247;28;19997;-73
2023/07/11 02:52:18;;;;;;;;;;;;;;;23.72;51.42;101506.50;5054914;28;20362;-73
2023/07/11 02:54:43;;;;;;;;;;;;;;;23.72;51.46;101503.78;5049946;28;19913;-73
2023/07/11 02:57:09;;;;;;;;;;;;;;;23.73;51.40;101501.91;5055614;28;19939;-73
2023/07/11 02:59:34;;;;;;;;;;;;;;;23.72;51.56;101498.38;5051396;28;19913;-73
2023/07/11 03:01:59;;;;;;;;;;;;;;;23.72;51.65;101498.38;5051074;28;19917;-73
2023/07/11 03:04:25;;;;;;;;;;;;;;;23.72;51.45;101490.22;5053181;28;20010;-73
2023/07/11 03:06:52;;;;;;;;;;;;;;;23.72;51.59;101489.38;5086372;28;19971;-73
2023/07/11 03:09:17;;;;;;;;;;;;;;;23.72;51.49;101486.66;5053293;28;19940;-73
2023/07/11 03:11:42;;;;;;;;;;;;;;;23.71;51.58;101485.81;5053353;28;19912;-73
2023/07/11 03:14:08;;;;;;;;;;;;;;;23.71;51.48;101480.41;5053743;28;19924;-73
2023/07/11 03:16:33;;;;;;;;;;;;;;;23.71;51.44;101484.97;5081301;28;19913;-73
2023/07/11 03:18:58;;;;;;;;;;;;;;;23.71;51.38;101484.97;5051786;28;19925;-73
2023/07/11 03:21:23;;;;;;;;;;;;;;;23.70;51.51;101478.69;5051421;28;19932;-73
2023/07/11 03:23:48;;;;;;;;;;;;;;;23.70;51.45;101475.97;5082159;28;19923;-73
2023/07/11 03:26:14;;;;;;;;;;;;;;;23.69;51.52;101475.13;5054893;28;19924;-73
2023/07/11 03:28:39;;;;;;;;;;;;;;;23.69;51.44;101472.41;5051769;28;19913;-74
2023/07/11 03:31:04;;;;;;;;;;;;;;;23.68;51.60;101476.16;5052839;28;19939;-73
2023/07/11 03:33:29;;;;;;;;;;;;;;;23.68;51.34;101468.03;5052484;28;19913;-74
2023/07/11 03:35:54;;;;;;;;;;;;;;;23.69;51.51;101463.44;5054424;28;19913;-74
2023/07/11 03:38:20;;;;;;;;;;;;;;;23.67;51.62;101463.63;5051947;28;19916;-74
2023/07/11 03:40:45;;;;;;;;;;;;;;;23.67;51.56;101455.47;5088308;28;20313;-73
2023/07/11 03:43:10;;;;;;;;;;;;;;;23.67;51.42;101455.47;5049294;28;19924;-74
2023/07/11 03:45:36;;;;;;;;;;;;;;;23.66;51.42;101448.38;5050828;28;19936;-73
2023/07/11 03:48:01;;;;;;;;;;;;;;;23.66;51.29;101448.38;5078040;28;19921;-73
2023/07/11 03:50:26;;;;;;;;;;;;;;;23.66;51.42;101439.34;5050158;28;19920;-73
2023/07/11 03:52:51;;;;;;;;;;;;;;;23.66;51.61;101440.22;5085394;28;19963;-74
2023/07/11 03:55:16;;;;;;;;;;;;;;;23.66;51.65;101442.06;5051573;28;19977;-73
2023/07/11 03:57:42;;;;;;;;;;;;;;;23.65;51.48;101434.97;5053939;28;19920;-74
2023/07/11 04:00:07;;;;;;;;;;;;;;;23.65;51.54;101433.09;5054193;28;19912;-72
2023/07/11 04:02:32;;;;;;;;;;;;;;;23.65;51.26;101443.13;5053023;28;20267;-73
2023/07/11 04:04:58;;;;;;;;;;;;;;;23.65;51.48;101433.09;5049616;28;19932;-73
2023/07/11 04:07:23;;;;;;;;;;;;;;;23.65;51.51;101432.25;5053331;28;19913;-71
2023/07/11 04:09:48;;;;;;;;;;;;;;;23.65;51.50;101429.53;5051766;28;19984;-75
2023/07/11 04:12:13;;;;;;;;;;;;;;;23.66;51.44;101431.22;5049132;28;20634;-73
2023/07/11 04:14:39;;;;;;;;;;;;;;;23.65;51.32;101435.81;5054331;28;20417;-74
2023/07/11 04:17:04;;;;;;;;;;;;;;;23.65;51.49;101432.25;5048049;28;19982;-74
2023/07/11 04:19:29;;;;;;;;;;;;;;;23.65;51.57;101427.66;5052947;28;19917;-74
2023/07/11 04:21:54;;;;;;;;;;;;;;;23.65;51.34;101427.66;5050636;28;19948;-72
2023/07/11 04:24:19;;;;;;;;;;;;;;;23.65;51.24;101430.38;5050421;28;19940;-75
2023/07/11 04:26:45;;;;;;;;;;;;;;;23.65;51.35;101422.22;5052597;28;19913;-72
2023/07/11 04:29:10;;;;;;;;;;;;;;;23.65;51.31;101424.94;5052051;28;19934;-74
2023/07/11 04:31:35;;;;;;;;;;;;;;;23.65;51.32;101419.53;5084164;28;19923;-75
2023/07/11 04:34:01;;;;;;;;;;;;;;;23.64;51.35;101415.09;5051856;28;19999;-75
2023/07/11 04:36:26;;;;;;;;;;;;;;;23.66;51.32;101414.94;5052208;28;19913;-75
2023/07/11 04:38:52;;;;;;;;;;;;;;;23.66;51.17;101423.94;5049774;28;19920;-76
2023/07/11 04:41:17;;;;;;;;;;;;;;;23.66;51.26;101410.38;5053691;28;19917;-76
2023/07/11 04:43:42;;;;;;;;;;;;;;;23.66;51.18;101407.66;5047190;28;19916;-76
2023/07/11 04:46:08;;;;;;;;;;;;;;;23.67;51.42;101403.06;5052204;28;19919;-75
2023/07/11 04:48:33;;;;;;;;;;;;;;;23.67;51.18;101403.06;5049749;28;19917;-74
2023/07/11 04:50:59;;;;;;;;;;;;;;;23.67;51.35;101403.91;5064850;28;19956;-74
2023/07/11 04:53:25;;;;;;;;;;;;;;;23.67;51.22;101393.03;5052642;28;19913;-72
2023/07/11 04:55:54;;;;;;;;;;;;;;;23.67;51.50;101392.19;5049821;28;20366;-72
2023/07/11 04:58:19;;;;;;;;;;;;;;;23.68;51.56;101391.16;5051221;28;19921;-72
2023/07/11 05:00:44;;;;;;;;;;;;;;;23.68;51.66;101386.56;5051481;28;19913;-71
2023/07/11 05:03:10;;;;;;;;;;;;;;;23.68;51.49;101389.28;5052072;28;19917;-72
2023/07/11 05:05:35;;;;;;;;;;;;;;;23.68;51.39;101380.31;5050282;28;19920;-76
2023/07/11 05:08:00;;;;;;;;;;;;;;;23.68;51.47;101381.16;5047494;28;19937;-76
2023/07/11 05:10:25;;;;;;;;;;;;;;;23.68;51.70;101378.44;5049807;28;19913;-75
2023/07/11 05:12:50;;;;;;;;;;;;;;;23.68;51.71;101377.59;5049765;28;19913;-75
2023/07/11 05:15:16;;;;;;;;;;;;;;;23.68;51.70;101372.16;5053404;28;19995;-75
2023/07/11 05:17:41;;;;;;;;;;;;;;;23.70;51.82;101378.22;5048511;28;19921;-75
2023/07/11 05:20:06;;;;;;;;;;;;;;;23.70;51.83;101370.09;5051062;28;19921;-75
2023/07/11 05:22:32;;;;;;;;;;;;;;;23.70;51.87;101370.09;5051342;28;19917;-74
2023/07/11 05:24:57;;;;;;;;;;;;;;;23.69;51.90;101369.25;5048610;28;19924;-75
2023/07/11 05:27:24;;;;;;;;;;;;;;;23.71;51.89;101360.09;5051888;28;19913;-75
2023/07/11 05:29:49;;;;;;;;;;;;;;;23.71;51.81;101366.38;5051964;28;20016;-75
2023/07/11 05:32:14;;;;;;;;;;;;;;;23.70;51.91;101356.50;5054255;28;19913;-74
2023/07/11 05:34:40;;;;;;;;;;;;;;;23.71;52.03;101363.66;5056219;28;20560;-76
2023/07/11 05:37:05;;;;;;;;;;;;;;;23.72;52.06;101364.50;5055530;28;19920;-75
2023/07/11 05:39:30;;;;;;;;;;;;;;;23.72;52.17;101361.78;5052215;28;20003;-75
2023/07/11 05:41:59;;;;;;;;;;;;;;;23.72;52.21;101368.03;5049344;28;20311;-75
2023/07/11 05:44:25;;;;;;;;;;;;;;;23.72;52.32;101359.91;5029021;28;19937;-75
2023/07/11 05:46:50;;;;;;;;;;;;;;;23.72;52.19;101354.47;5070681;28;19913;-74
2023/07/11 05:49:15;;;;;;;;;;;;;;;23.74;52.18;101362.41;5051260;28;19913;-75
2023/07/11 05:51:40;;;;;;;;;;;;;;;23.74;52.25;101356.97;5053754;28;19917;-75
2023/07/11 05:54:06;;;;;;;;;;;;;;;23.73;52.21;101355.31;5052174;28;19913;-75
2023/07/11 05:56:31;;;;;;;;;;;;;;;23.74;52.25;101338.81;5055155;28;20445;-75
2023/07/11 05:58:57;;;;;;;;;;;;;;;23.75;52.37;101347.81;5083471;28;19917;-74
2023/07/11 06:01:26;;;;;;;;;;;;;;;23.74;52.43;101341.53;5054149;28;19917;-75
2023/07/11 06:04:00;;;;;;;;;;;;;;;23.73;52.47;101334.41;5052673;28;19936;-73
2023/07/11 06:06:26;;;;;;;;;;;;;;;23.74;52.35;101332.53;5054693;28;19917;-71
2023/07/11 06:08:51;;;;;;;;;;;;;;;23.74;52.42;101324.41;5053392;28;19917;-70
2023/07/11 06:11:16;;;;;;;;;;;;;;;23.75;52.54;101321.50;5050607;28;19931;-71
2023/07/11 06:13:41;;;;;;;;;;;;;;;23.74;52.57;101317.09;5050956;28;19916;-72
2023/07/11 06:16:16;;;;;;;;;;;;;;;23.75;52.50;101312.53;5050786;28;20019;-72
2023/07/11 06:18:41;;;;;;;;;;;;;;;23.75;52.56;101310.66;5050271;28;19996;-72
2023/07/11 06:21:07;;;;;;;;;;;;;;;23.75;52.60;101307.94;5050077;28;19947;-72
2023/07/11 06:23:32;;;;;;;;;;;;;;;23.75;52.38;101304.38;5084391;28;19989;-72
2023/07/11 06:25:58;;;;;;;;;;;;;;;23.75;52.44;101307.94;5055849;28;19917;-72
2023/07/11 06:28:23;;;;;;;;;;;;;;;23.76;52.49;101306.06;5033221;28;19948;-71
2023/07/11 06:30:49;;;;;;;;;;;;;;;23.75;52.20;101298.94;5053882;28;19917;-71
2023/07/11 06:33:19;;;;;;;;;;;;;;;23.75;52.43;101302.50;5085159;28;19944;-71
2023/07/11 06:35:46;;;;;;;;;;;;;;;23.74;52.42;101298.09;5052587;28;19917;-71
2023/07/11 06:38:11;;;;;;;;;;;;;;;23.76;52.34;101306.06;5052187;28;19928;-71
2023/07/11 06:40:37;;;;;;;;;;;;;;;23.76;52.47;101297.91;5084509;28;19914;-70
2023/07/11 06:43:02;;;;;;;;;;;;;;;23.76;52.43;101297.91;5054928;28;19971;-67
2023/07/11 06:45:27;;;;;;;;;;;;;;;23.76;52.31;101297.91;5051567;28;19913;-71
2023/07/11 06:47:52;;;;;;;;;;;;;;;23.76;52.49;101295.19;5053960;28;19970;-72
2023/07/11 06:50:18;;;;;;;;;;;;;;;23.76;52.22;101293.31;5047385;28;19917;-76
2023/07/11 06:52:43;;;;;;;;;;;;;;;23.76;52.48;101293.31;5050447;28;20003;-71
2023/07/11 06:55:09;;;;;;;;;;;;;;;23.76;52.30;101290.59;5053106;28;19917;-73
2023/07/11 06:57:34;;;;;;;;;;;;;;;23.77;52.30;101280.59;5055846;28;19917;-74
2023/07/11 06:59:59;;;;;;;;;;;;;;;23.77;52.35;101281.41;5047872;28;20271;-74
2023/07/11 07:02:24;;;;;;;;;;;;;;;23.77;52.39;101284.13;5033155;28;20366;-74
2023/07/11 07:04:49;;;;;;;;;;;;;;;23.77;52.43;101286.84;5032447;28;19916;-74
2023/07/11 07:07:15;;;;;;;;;;;;;;;23.77;52.58;101284.13;5051065;28;19925;-74
2023/07/11 07:09:40;;;;;;;;;;;;;;;23.77;52.43;101278.69;5054666;28;19944;-74
2023/07/11 07:12:05;;;;;;;;;;;;;;;23.77;52.52;101286.84;5051664;28;19989;-74
2023/07/11 07:14:31;;;;;;;;;;;;;;;23.78;52.38;101282.25;5052492;28;19916;-74
2023/07/11 07:16:56;;;;;;;;;;;;;;;23.78;52.25;101277.66;5054171;28;20006;-74
2023/07/11 07:19:21;;;;;;;;;;;;;;;23.79;52.35;101281.22;5052181;28;19920;-74
2023/07/11 07:21:46;;;;;;;;;;;;;;;23.78;52.35;101271.41;5085259;28;19928;-74
2023/07/11 07:24:11;;;;;;;;;;;;;;;23.78;52.30;101280.38;5054862;28;19919;-74
2023/07/11 07:26:37;;;;;;;;;;;;;;;23.79;52.30;101287.50;5054372;28;19935;-75
2023/07/11 07:29:03;;;;;;;;;;;;;;;23.78;52.28;101280.38;5053061;28;19920;-74
2023/07/11 07:31:28;;;;;;;;;;;;;;;23.79;52.09;101283.94;5054859;28;19917;-74
2023/07/11 07:33:53;;;;;;;;;;;;;;;23.78;52.33;101283.09;5047399;28;19923;-74
2023/07/11 07:36:19;;;;;;;;;;;;;;;23.80;52.39;101288.34;5053466;28;20282;-75
2023/07/11 07:38:44;;;;;;;;;;;;;;;23.80;52.25;101278.31;5052024;28;20429;-74
2023/07/11 07:41:10;;;;;;;;;;;;;;;23.79;52.26;101282.09;5052923;28;19913;-74
2023/07/11 07:43:53;;;;;;;;;;;;;;;23.79;52.20;101279.38;5055515;28;19913;-74
2023/07/11 07:46:19;;;;;;;;;;;;;;;23.79;52.20;101279.38;5076828;28;19980;-74
2023/07/11 07:48:44;;;;;;;;;;;;;;;23.80;52.09;101266.63;5052520;28;20283;-74
2023/07/11 07:51:19;;;;;;;;;;;;;;;23.80;52.23;101263.91;5050902;28;19940;-74
2023/07/11 07:53:44;;;;;;;;;;;;;;;23.81;52.21;101250.13;5028497;28;19936;-74
2023/07/11 07:56:10;;;;;;;;;;;;;;;23.80;52.18;101251.19;5082881;28;19913;-74
2023/07/11 07:58:36;;;;;;;;;;;;;;;23.80;52.08;101256.59;5054982;28;19967;-74
2023/07/11 08:01:03;;;;;;;;;;;;;;;23.81;52.13;101243.88;5047318;28;19913;-74
2023/07/11 08:03:29;;;;;;;;;;;;;;;23.81;52.15;101249.31;5053330;28;19916;-74
2023/07/11 08:05:54;;;;;;;;;;;;;;;23.82;52.17;101243.66;5048874;28;20004;-74
2023/07/11 08:08:20;;;;;;;;;;;;;;;23.81;52.21;101247.41;5051733;28;19928;-74
2023/07/11 08:10:45;;;;;;;;;;;;;;;23.81;52.02;101243.88;5052657;28;20334;-74
2023/07/11 08:13:10;;;;;;;;;;;;;;;23.82;52.15;101245.53;5052760;28;19913;-74
2023/07/11 08:15:35;;;;;;;;;;;;;;;23.82;52.07;101243.66;5053785;28;19913;-74
2023/07/11 08:18:01;;;;;;;;;;;;;;;23.84;52.07;101240.78;5053547;28;20435;-74
2023/07/11 08:20:26;;;;;;;;;;;;;;;23.82;52.06;101232.81;5052675;28;19972;-74
2023/07/11 08:22:51;;;;;;;;;;;;;;;23.83;52.10;101233.63;5081626;28;19917;-74
2023/07/11 08:25:16;;;;;;;;;;;;;;;23.84;52.14;101229.91;5054614;28;19916;-74
2023/07/11 08:27:42;;;;;;;;;;;;;;;23.83;51.90;101229.06;5051578;28;19917;-75
2023/07/11 08:30:07;;;;;;;;;;;;;;;23.84;52.16;101232.63;5081385;28;20354;-74
2023/07/11 08:32:32;;;;;;;;;;;;;;;23.84;52.14;101228.03;5052589;28;19963;-75
2023/07/11 08:34:58;;;;;;;;;;;;;;;23.85;52.00;101226.16;5047606;28;19917;-74
2023/07/11 08:37:23;;;;;;;;;;;;;;;23.84;51.94;101219.88;5052179;28;19966;-74
2023/07/11 08:39:48;;;;;;;;;;;;;;;23.85;51.93;101224.28;5051305;28;19975;-74
2023/07/11 08:42:34;;;;;;;;;;;;;;;23.85;51.93;101221.56;5051560;28;19984;-75
2023/07/11 08:45:05;;;;;;;;;;;;;;;23.85;51.91;101213.41;5051531;28;20423;-75
2023/07/11 08:47:32;;;;;;;;;;;;;;;23.86;51.88;101214.25;5048462;28;19958;-75
2023/07/11 08:50:03;;;;;;;;;;;;;;;23.86;51.93;101220.53;5085981;28;19924;-75
2023/07/11 08:52:29;;;;;;;;;;;;;;;23.86;52.04;101223.22;5054112;28;19917;-75
2023/07/11 08:54:56;;;;;;;;;;;;;;;23.87;51.87;101208.66;5050919;28;20621;-75
2023/07/11 08:57:23;;;;;;;;;;;;;;;23.87;52.06;101214.06;5083321;28;19913;-75
2023/07/11 08:59:48;;;;;;;;;;;;;;;23.87;51.85;101197.78;5047338;28;19924;-75
2023/07/11 09:02:32;;;;;;;;;;;;;;;23.88;51.83;101210.31;5047787;28;19917;-75
2023/07/11 09:04:58;;;;;;;;;;;;;;;23.89;51.96;101200.28;5082916;28;19947;-75
2023/07/11 09:07:23;;;;;;;;;;;;;;;23.88;51.91;101199.47;5047524;28;19913;-75
2023/07/11 09:09:48;;;;;;;;;;;;;;;23.88;51.93;101199.47;5051488;28;19917;-75
2023/07/11 09:12:26;;;;;;;;;;;;;;;23.89;51.88;101192.16;5052412;28;20267;-75
2023/07/11 09:14:59;;;;;;;;;;;;;;;23.90;52.00;101200.09;5049992;28;19924;-75
2023/07/11 09:17:30;;;;;;;;;;;;;;;23.90;51.88;101196.53;5050251;28;19925;-75
2023/07/11 09:19:55;;;;;;;;;;;;;;;23.90;51.83;101183.78;5049641;28;19924;-75
2023/07/11 09:22:36;;;;;;;;;;;;;;;23.91;51.95;101187.34;5050172;28;19980;-74
2023/07/11 09:25:12;;;;;;;;;;;;;;;23.91;52.02;101184.63;5049962;28;19957;-75
2023/07/11 09:27:39;;;;;;;;;;;;;;;23.91;52.02;101193.63;5044681;28;20621;-75
2023/07/11 09:30:23;;;;;;;;;;;;;;;23.92;52.12;101180.91;5082483;28;19916;-75
2023/07/11 09:32:48;;;;;;;;;;;;;;;23.93;51.92;101174.44;5064887;28;19944;-74
2023/07/11 09:35:30;;;;;;;;;;;;;;;23.92;52.06;101176.31;5047145;28;20378;-74
2023/07/11 09:38:00;;;;;;;;;;;;;;;23.95;52.10;101177.78;5050212;28;19935;-74
2023/07/11 09:40:35;;;;;;;;;;;;;;;23.95;52.16;101165.03;5048771;28;19917;-74
2023/07/11 09:43:00;;;;;;;;;;;;;;;23.95;52.11;101164.19;5031950;28;19916;-74
2023/07/11 09:45:33;;;;;;;;;;;;;;;23.97;52.05;101167.56;5076723;28;19917;-74
2023/07/11 09:48:03;;;;;;;;;;;;;;;23.98;51.90;101165.69;5058412;28;19921;-74
2023/07/11 09:50:34;;;;;;;;;;;;;;;23.97;52.04;101156.72;5046751;28;19917;-75
2023/07/11 09:53:00;;;;;;;;;;;;;;;23.97;52.06;101167.56;5050488;28;19928;-75
2023/07/11 09:55:30;;;;;;;;;;;;;;;23.97;52.31;101158.59;5046582;28;19917;-75
2023/07/11 09:57:55;;;;;;;;;;;;;;;23.95;52.12;101154.16;5043526;28;19917;-75
2023/07/11 10:00:21;;;;;;;;;;;;;;;23.95;52.30;101154.16;5048823;28;19963;-75
2023/07/11 10:02:46;;;;;;;;;;;;;;;23.95;52.22;101159.59;5045094;28;19921;-75
2023/07/11 10:05:17;;;;;;;;;;;;;;;23.95;52.36;101154.16;5051295;28;19914;-74
2023/07/11 10:07:43;;;;;;;;;;;;;;;23.94;52.39;101149.78;5048737;28;19944;-74
2023/07/11 10:10:13;;;;;;;;;;;;;;;23.94;52.65;101144.34;5048762;28;19917;-74
2023/07/11 10:12:38;;;;;;;;;;;;;;;23.93;52.44;101142.69;5066851;28;19923;-74
2023/07/11 10:15:05;;;;;;;;;;;;;;;23.95;52.49;101148.72;5050363;28;19917;-75
2023/07/11 10:17:34;;;;;;;;;;;;;;;23.93;52.43;101150.00;5082987;28;19932;-74
2023/07/11 10:20:00;;;;;;;;;;;;;;;23.95;52.54;101153.31;5053503;28;19928;-75
2023/07/11 10:22:27;;;;;;;;;;;;;;;23.95;52.62;101142.47;5054233;28;19976;-75
2023/07/11 10:24:59;;;;;;;;;;;;;;;23.95;52.60;101137.88;5050181;28;19955;-76
2023/07/11 10:27:26;;;;;;;;;;;;;;;23.95;52.59;101147.91;5053190;28;20377;-75
2023/07/11 10:29:53;;;;;;;;;;;;;;;23.95;52.59;101140.59;5052688;28;19913;-75
2023/07/11 10:32:27;;;;;;;;;;;;;;;23.95;52.61;101146.03;5053266;28;19924;-76
2023/07/11 10:34:53;;;;;;;;;;;;;;;23.97;52.48;101142.28;5051636;28;19913;-75
2023/07/11 10:37:30;;;;;;;;;;;;;;;23.97;52.73;101151.28;5069877;28;19913;-75
2023/07/11 10:40:14;;;;;;;;;;;;;;;23.96;52.87;101127.88;5050995;28;19924;-72
2023/07/11 10:42:42;;;;;;;;;;;;;;;23.97;52.68;101137.69;5053829;28;19921;-72
2023/07/11 10:45:07;;;;;;;;;;;;;;;23.97;52.83;101129.53;5081070;28;20577;-73
2023/07/11 10:47:33;;;;;;;;;;;;;;;23.97;52.76;101134.97;5055420;28;19940;-75
2023/07/11 10:50:00;;;;;;;;;;;;;;;23.98;52.85;101139.38;5081221;28;19916;-72
2023/07/11 10:52:26;;;;;;;;;;;;;;;23.99;52.70;101123.91;5082949;28;19935;-73
2023/07/11 10:55:10;;;;;;;;;;;;;;;23.99;52.86;101121.19;5053470;28;19945;-74
2023/07/11 10:57:38;;;;;;;;;;;;;;;23.99;52.87;101127.47;5048884;28;19970;-72
2023/07/11 11:00:08;;;;;;;;;;;;;;;24.00;52.83;101126.44;5053520;28;19913;-74
2023/07/11 11:02:49;;;;;;;;;;;;;;;24.00;52.90;101121.00;5067683;28;19921;-74
2023/07/11 11:05:20;;;;;;;;;;;;;;;24.01;52.96;101128.13;5053009;28;19917;-72
2023/07/11 11:07:47;;;;;;;;;;;;;;;24.01;52.94;101122.69;5054782;28;20389;-73
2023/07/11 11:10:19;;;;;;;;;;;;;;;24.02;52.94;101124.34;5054714;28;19917;-73
2023/07/11 11:13:02;;;;;;;;;;;;;;;24.02;53.08;101131.66;5057283;28;19913;-74
2023/07/11 11:15:31;;;;;;;;;;;;;;;24.03;53.12;101119.75;5059505;28;19917;-75
2023/07/11 11:18:05;;;;;;;;;;;;;;;24.03;53.19;101122.47;5053642;28;19989;-75
2023/07/11 11:20:35;;;;;;;;;;;;;;;24.04;53.16;101124.16;5057508;28;19931;-75
2023/07/11 11:23:04;;;;;;;;;;;;;;;24.05;53.28;101129.41;5049302;28;19921;-75
2023/07/11 11:25:33;;;;;;;;;;;;;;;24.06;53.33;101119.38;5051563;28;19988;-70
2023/07/11 11:28:06;;;;;;;;;;;;;;;24.05;53.19;101121.25;5056660;28;20000;-71
2023/07/11 11:30:35;;;;;;;;;;;;;;;24.06;53.30;101119.38;5034356;28;20301;-71
2023/07/11 11:33:04;;;;;;;;;;;;;;;24.08;53.51;101117.28;5055723;28;19917;-71
2023/07/11 11:35:33;;;;;;;;;;;;;;;24.07;53.53;101124.59;5052929;28;19927;-71
2023/07/11 11:38:17;;;;;;;;;;;;;;;24.08;53.31;101118.13;5055524;28;19919;-70
2023/07/11 11:40:43;;;;;;;;;;;;;;;24.08;53.35;101118.13;5050650;28;19917;-70
2023/07/11 11:43:12;;;;;;;;;;;;;;;24.09;53.38;101119.00;5056675;28;20404;-70
2023/07/11 11:45:37;;;;;;;;;;;;;;;24.08;53.38;101109.13;5053307;28;19913;-71
2023/07/11 11:48:02;;;;;;;;;;;;;;;24.09;53.40;101114.38;5056679;28;19966;-71
2023/07/11 11:50:28;;;;;;;;;;;;;;;24.09;53.52;101106.25;5083089;28;19963;-71
2023/07/11 11:52:54;;;;;;;;;;;;;;;24.10;53.52;101110.63;5082752;28;19960;-72
2023/07/11 11:55:29;;;;;;;;;;;;;;;24.10;53.30;101104.38;5052845;28;20020;-73
2023/07/11 11:57:54;;;;;;;;;;;;;;;24.11;53.44;101108.75;5048932;28;19913;-71
2023/07/11 12:00:42;;;;;;;;;;;;;;;24.11;53.38;101103.31;5053146;28;19921;-75
2023/07/11 12:03:26;;;;;;;;;;;;;;;24.12;53.32;101105.00;5050833;28;19963;-74
2023/07/11 12:05:52;;;;;;;;;;;;;;;24.13;53.36;101103.97;5050997;28;19924;-75
2023/07/11 12:08:20;;;;;;;;;;;;;;;24.13;53.44;101096.66;5051231;28;19991;-75
2023/07/11 12:11:04;;;;;;;;;;;;;;;24.13;53.65;101096.66;5052392;28;19913;-75
2023/07/11 12:13:30;;;;;;;;;;;;;;;24.14;53.59;101090.19;5052636;28;19917;-75
2023/07/11 12:15:56;;;;;;;;;;;;;;;24.15;53.50;101088.28;5085164;28;19920;-76
2023/07/11 12:18:50;;;;;;;;;;;;;;;24.15;53.38;101091.00;5047752;28;19932;-75
2023/07/11 12:21:19;;;;;;;;;;;;;;;24.15;53.35;101089.13;5076415;28;20359;-76
2023/07/11 12:23:45;;;;;;;;;;;;;;;24.16;53.28;101089.97;5045265;28;20024;-76
2023/07/11 12:26:14;;;;;;;;;;;;;;;24.17;53.60;101091.63;5064273;28;20416;-76
2023/07/11 12:28:41;;;;;;;;;;;;;;;24.16;53.39;101090.81;5055002;28;19917;-75
2023/07/11 12:31:17;;;;;;;;;;;;;;;24.17;53.39;101088.91;5048189;28;19913;-75
2023/07/11 12:33:42;;;;;;;;;;;;;;;24.18;53.36;101085.19;5049290;28;19928;-74
2023/07/11 12:36:26;;;;;;;;;;;;;;;24.17;53.30;101081.63;5049824;28;19913;-72